Wetterdaten: Woche 01.06.09 - 07.06.09 (KW23)
Datum Zeit Temperatur Luftfeuchte Luftdruck Niederschlag Wind Richtung Sonnenschein Solar Taupunkt Windchill Windben
01.06.2009 00:00 12.9 C 57 % 1018.2 hPa 0.0 l/m 2.4 km/h (1 Bft) N-NO 0.00 h 0 W/m 4.4 C 12.9 C 5.7 km/h (1 Bft)
01.06.2009 01:00 11.9 C 61 % 1017.8 hPa 0.0 l/m 0.1 km/h (0 Bft) N-NO 0.00 h 0 W/m 4.5 C 11.9 C 1.2 km/h (1 Bft)
01.06.2009 02:00 10.4 C 70 % 1017.5 hPa 0.0 l/m 0.8 km/h (0 Bft) O-SO 0.00 h 0 W/m 5.1 C 10.4 C 1.8 km/h (1 Bft)
01.06.2009 03:00 9.6 C 72 % 1017.0 hPa 0.0 l/m 2.2 km/h (1 Bft) O 0.00 h 0 W/m 4.9 C 9.5 C 3.5 km/h (1 Bft)
01.06.2009 04:00 8.9 C 76 % 1016.5 hPa 0.0 l/m 3.0 km/h (1 Bft) O 0.00 h 0 W/m 4.9 C 8.8 C 4.4 km/h (1 Bft)
01.06.2009 05:00 8.7 C 79 % 1016.6 hPa 0.0 l/m 1.6 km/h (1 Bft) SO 0.03 h 12 W/m 5.3 C 8.7 C 3.2 km/h (1 Bft)
01.06.2009 06:00 9.1 C 81 % 1017.0 hPa 0.0 l/m 0.3 km/h (0 Bft) SO 0.02 h 61 W/m 5.9 C 9.1 C 1.4 km/h (1 Bft)
01.06.2009 07:00 11.4 C 76 % 1017.2 hPa 0.0 l/m 1.5 km/h (1 Bft) O 0.48 h 177 W/m 7.2 C 11.4 C 4.1 km/h (1 Bft)
01.06.2009 08:00 15.8 C 62 % 1017.1 hPa 0.0 l/m 2.9 km/h (1 Bft) N-NW 1.00 h 377 W/m 8.5 C 15.8 C 5.6 km/h (1 Bft)
01.06.2009 09:00 16.9 C 59 % 1016.7 hPa 0.0 l/m 3.0 km/h (1 Bft) N-NO 0.72 h 459 W/m 8.7 C 16.9 C 6.8 km/h (2 Bft)
01.06.2009 10:00 18.3 C 55 % 1016.4 hPa 0.0 l/m 5.3 km/h (1 Bft) O-SO 0.88 h 603 W/m 9.2 C 18.3 C 9.9 km/h (2 Bft)
01.06.2009 11:00 19.5 C 53 % 1016.1 hPa 0.0 l/m 6.0 km/h (2 Bft) O-SO 0.98 h 747 W/m 9.6 C 19.5 C 12.2 km/h (2 Bft)
01.06.2009 12:00 20.8 C 54 % 1015.9 hPa 0.0 l/m 5.9 km/h (2 Bft) O-SO 0.97 h 982 W/m 11.1 C 20.8 C 11.9 km/h (2 Bft)
01.06.2009 13:00 21.2 C 55 % 1015.4 hPa 0.0 l/m 6.7 km/h (2 Bft) O-SO 0.80 h 861 W/m 11.7 C 21.2 C 13.1 km/h (3 Bft)
01.06.2009 14:00 20.3 C 60 % 1015.5 hPa 0.0 l/m 8.9 km/h (2 Bft) N-NW 0.25 h 401 W/m 12.2 C 20.3 C 15.2 km/h (3 Bft)
01.06.2009 15:00 21.4 C 55 % 1015.0 hPa 0.0 l/m 4.6 km/h (1 Bft) N 0.35 h 424 W/m 11.9 C 21.4 C 9.1 km/h (2 Bft)
01.06.2009 16:00 20.9 C 51 % 1015.1 hPa 0.0 l/m 4.8 km/h (1 Bft) N-NO 0.00 h 207 W/m 10.3 C 20.9 C 9.7 km/h (2 Bft)
01.06.2009 17:00 20.2 C 55 % 1015.2 hPa 0.0 l/m 2.9 km/h (1 Bft) N 0.37 h 270 W/m 10.8 C 20.2 C 6.8 km/h (2 Bft)
01.06.2009 18:00 20.4 C 56 % 1015.1 hPa 0.0 l/m 3.6 km/h (1 Bft) N-NO 0.18 h 197 W/m 11.3 C 20.4 C 7.0 km/h (2 Bft)
01.06.2009 19:00 20.3 C 57 % 1014.9 hPa 0.0 l/m 2.9 km/h (1 Bft) N-NO 0.17 h 126 W/m 11.5 C 20.3 C 5.9 km/h (2 Bft)
01.06.2009 20:00 19.7 C 58 % 1014.7 hPa 0.0 l/m 0.3 km/h (0 Bft) N-NO 0.10 h 40 W/m 11.3 C 19.7 C 1.6 km/h (1 Bft)
01.06.2009 21:00 18.0 C 65 % 1014.9 hPa 0.0 l/m 0.9 km/h (0 Bft) O-NO 0.03 h 8 W/m 11.3 C 18.0 C 2.8 km/h (1 Bft)
01.06.2009 22:00 16.4 C 68 % 1015.6 hPa 0.0 l/m 1.9 km/h (1 Bft) NO 0.00 h 0 W/m 10.5 C 16.4 C 4.8 km/h (1 Bft)
01.06.2009 23:00 15.9 C 70 % 1015.9 hPa 0.0 l/m 2.1 km/h (1 Bft) NO 0.00 h 0 W/m 10.4 C 15.9 C 5.3 km/h (1 Bft)
02.06.2009 00:00 15.4 C 73 % 1015.9 hPa 0.0 l/m 1.4 km/h (1 Bft) O-NO 0.00 h 0 W/m 10.6 C 15.4 C 3.6 km/h (1 Bft)
02.06.2009 01:00 14.7 C 76 % 1015.7 hPa 0.0 l/m 0.3 km/h (0 Bft) O-SO 0.00 h 0 W/m 10.6 C 14.7 C 2.0 km/h (1 Bft)
02.06.2009 02:00 13.5 C 80 % 1015.7 hPa 0.0 l/m 0.2 km/h (0 Bft) O 0.00 h 0 W/m 10.1 C 13.5 C 1.2 km/h (1 Bft)
02.06.2009 03:00 12.0 C 85 % 1015.6 hPa 0.0 l/m 0.4 km/h (0 Bft) O 0.00 h 0 W/m 9.6 C 12.0 C 1.1 km/h (1 Bft)
02.06.2009 04:00 10.9 C 89 % 1015.7 hPa 0.0 l/m 0.5 km/h (0 Bft) O 0.00 h 0 W/m 9.1 C 10.9 C 1.1 km/h (1 Bft)
02.06.2009 05:00 10.3 C 91 % 1016.0 hPa 0.0 l/m 0.2 km/h (0 Bft) O 0.03 h 10 W/m 8.9 C 10.3 C 0.7 km/h (0 Bft)
02.06.2009 06:00 10.3 C 93 % 1016.1 hPa 0.0 l/m 0.3 km/h (0 Bft) N 0.03 h 32 W/m 9.2 C 10.3 C 1.3 km/h (1 Bft)
02.06.2009 07:00 12.3 C 95 % 1016.1 hPa 0.0 l/m 1.2 km/h (1 Bft) N 1.00 h 198 W/m 11.4 C 12.3 C 2.5 km/h (1 Bft)
02.06.2009 08:00 16.5 C 80 % 1016.0 hPa 0.0 l/m 2.1 km/h (1 Bft) N-NW 1.00 h 364 W/m 12.9 C 16.5 C 3.9 km/h (1 Bft)
02.06.2009 09:00 18.6 C 65 % 1015.9 hPa 0.0 l/m 2.1 km/h (1 Bft) O-SO 1.00 h 531 W/m 11.9 C 18.6 C 5.3 km/h (1 Bft)
02.06.2009 10:00 20.5 C 52 % 1015.7 hPa 0.0 l/m 2.8 km/h (1 Bft) N-NO 1.00 h 691 W/m 10.2 C 20.5 C 5.8 km/h (2 Bft)
02.06.2009 11:00 21.5 C 46 % 1015.6 hPa 0.0 l/m 3.8 km/h (1 Bft) O-SO 0.87 h 780 W/m 9.4 C 21.5 C 7.4 km/h (2 Bft)
02.06.2009 12:00 22.4 C 46 % 1015.4 hPa 0.0 l/m 7.9 km/h (2 Bft) N-NW 0.70 h 695 W/m 10.1 C 22.4 C 13.5 km/h (3 Bft)
02.06.2009 13:00 23.1 C 42 % 1015.2 hPa 0.0 l/m 6.3 km/h (2 Bft) O-SO 1.00 h 897 W/m 9.4 C 23.1 C 11.4 km/h (2 Bft)
02.06.2009 14:00 23.2 C 42 % 1014.9 hPa 0.0 l/m 5.4 km/h (1 Bft) O-SO 0.78 h 790 W/m 9.7 C 23.2 C 9.2 km/h (2 Bft)
02.06.2009 15:00 22.9 C 43 % 1014.9 hPa 0.0 l/m 3.4 km/h (1 Bft) O-SO 0.32 h 432 W/m 9.5 C 22.9 C 6.2 km/h (2 Bft)
02.06.2009 16:00 23.9 C 45 % 1014.7 hPa 0.0 l/m 4.5 km/h (1 Bft) W-NW 0.48 h 487 W/m 11.1 C 23.9 C 7.4 km/h (2 Bft)
02.06.2009 17:00 22.4 C 53 % 1014.8 hPa 0.0 l/m 6.6 km/h (2 Bft) W 0.22 h 209 W/m 12.3 C 22.4 C 10.4 km/h (2 Bft)
02.06.2009 18:00 21.2 C 58 % 1014.8 hPa 0.0 l/m 6.3 km/h (2 Bft) W 0.07 h 112 W/m 12.7 C 21.2 C 10.7 km/h (2 Bft)
02.06.2009 19:00 19.7 C 65 % 1014.8 hPa 0.0 l/m 4.2 km/h (1 Bft) N 0.42 h 97 W/m 13.0 C 19.7 C 7.2 km/h (2 Bft)
02.06.2009 20:00 19.6 C 67 % 1014.7 hPa 0.0 l/m 3.7 km/h (1 Bft) N-NW 0.25 h 57 W/m 13.2 C 19.6 C 6.3 km/h (2 Bft)
02.06.2009 21:00 17.9 C 70 % 1014.8 hPa 0.0 l/m 1.4 km/h (1 Bft) N 0.05 h 9 W/m 12.4 C 17.9 C 2.8 km/h (1 Bft)
02.06.2009 22:00 16.1 C 77 % 1015.3 hPa 0.0 l/m 1.6 km/h (1 Bft) O 0.00 h 0 W/m 12.1 C 16.1 C 2.9 km/h (1 Bft)
02.06.2009 23:00 14.7 C 82 % 1015.5 hPa 0.0 l/m 1.4 km/h (1 Bft) O-SO 0.00 h 0 W/m 11.6 C 14.7 C 2.3 km/h (1 Bft)
03.06.2009 00:00 13.3 C 85 % 1015.6 hPa 0.0 l/m 0.5 km/h (0 Bft) O-SO 0.00 h 0 W/m 10.9 C 13.3 C 1.3 km/h (1 Bft)
03.06.2009 01:00 12.4 C 89 % 1015.6 hPa 0.0 l/m 0.5 km/h (0 Bft) O-SO 0.00 h 0 W/m 10.6 C 12.4 C 1.1 km/h (0 Bft)
03.06.2009 02:00 11.8 C 91 % 1015.6 hPa 0.0 l/m 0.1 km/h (0 Bft) O-SO 0.00 h 0 W/m 10.4 C 11.8 C 0.3 km/h (0 Bft)
03.06.2009 03:00 11.6 C 93 % 1015.3 hPa 0.0 l/m 0.0 km/h (0 Bft) O-SO 0.00 h 0 W/m 10.5 C 11.6 C 0.2 km/h (0 Bft)
03.06.2009 04:00 11.3 C 93 % 1014.9 hPa 0.0 l/m 0.1 km/h (0 Bft) O-SO 0.00 h 0 W/m 10.2 C 11.3 C 0.4 km/h (0 Bft)
03.06.2009 05:00 10.8 C 94 % 1015.0 hPa 0.0 l/m 0.0 km/h (0 Bft) O-SO 0.00 h 10 W/m 9.9 C 10.8 C 0.4 km/h (0 Bft)
03.06.2009 06:00 10.3 C 95 % 1015.2 hPa 0.0 l/m 0.4 km/h (0 Bft) O-SO 0.03 h 37 W/m 9.5 C 10.3 C 0.9 km/h (0 Bft)
03.06.2009 07:00 11.8 C 96 % 1015.5 hPa 0.0 l/m 0.0 km/h (0 Bft) N 1.00 h 181 W/m 11.2 C 11.8 C 0.1 km/h (0 Bft)
03.06.2009 08:00 15.4 C 84 % 1015.2 hPa 0.0 l/m 0.5 km/h (0 Bft) N-NO 0.98 h 306 W/m 12.6 C 15.4 C 1.6 km/h (1 Bft)
03.06.2009 09:00 17.6 C 72 % 1015.1 hPa 0.0 l/m 0.6 km/h (0 Bft) N-NO 1.00 h 487 W/m 12.5 C 17.6 C 1.8 km/h (1 Bft)
03.06.2009 10:00 19.7 C 63 % 1014.5 hPa 0.0 l/m 1.6 km/h (1 Bft) NW 1.00 h 651 W/m 12.5 C 19.7 C 3.7 km/h (1 Bft)
03.06.2009 11:00 21.3 C 58 % 1014.1 hPa 0.0 l/m 4.5 km/h (1 Bft) W-NW 1.00 h 785 W/m 12.6 C 21.3 C 8.0 km/h (2 Bft)
03.06.2009 12:00 22.4 C 53 % 1013.6 hPa 0.0 l/m 9.3 km/h (2 Bft) W 1.00 h 896 W/m 12.2 C 22.4 C 16.8 km/h (3 Bft)
03.06.2009 13:00 23.1 C 37 % 1013.4 hPa 0.0 l/m 11.7 km/h (2 Bft) W 1.00 h 899 W/m 7.3 C 23.1 C 18.5 km/h (3 Bft)
03.06.2009 14:00 23.7 C 33 % 1013.0 hPa 0.0 l/m 10.4 km/h (2 Bft) W 0.92 h 831 W/m 6.2 C 23.7 C 17.4 km/h (3 Bft)
03.06.2009 15:00 22.9 C 36 % 1012.9 hPa 0.0 l/m 11.7 km/h (2 Bft) W 0.90 h 637 W/m 6.8 C 22.9 C 18.5 km/h (3 Bft)
03.06.2009 16:00 23.5 C 34 % 1012.8 hPa 0.0 l/m 9.7 km/h (2 Bft) W 1.00 h 701 W/m 6.6 C 23.5 C 15.2 km/h (3 Bft)
03.06.2009 17:00 23.7 C 37 % 1012.5 hPa 0.0 l/m 8.7 km/h (2 Bft) W 0.57 h 442 W/m 7.9 C 23.7 C 13.2 km/h (3 Bft)
03.06.2009 18:00 23.5 C 38 % 1012.2 hPa 0.0 l/m 8.1 km/h (2 Bft) W 1.00 h 381 W/m 8.4 C 23.5 C 12.3 km/h (3 Bft)
03.06.2009 19:00 23.0 C 41 % 1011.9 hPa 0.0 l/m 7.0 km/h (2 Bft) W-NW 0.53 h 162 W/m 9.0 C 23.0 C 10.8 km/h (2 Bft)
03.06.2009 20:00 21.3 C 45 % 1011.7 hPa 0.0 l/m 5.9 km/h (2 Bft) W-NW 0.40 h 61 W/m 8.8 C 21.3 C 9.4 km/h (2 Bft)
03.06.2009 21:00 19.0 C 49 % 1011.9 hPa 0.0 l/m 6.6 km/h (2 Bft) N-NW 0.00 h 6 W/m 8.2 C 19.0 C 11.2 km/h (2 Bft)
03.06.2009 22:00 17.5 C 51 % 1012.4 hPa 0.0 l/m 5.1 km/h (1 Bft) N-NW 0.00 h 0 W/m 7.4 C 17.5 C 8.5 km/h (2 Bft)
03.06.2009 23:00 16.4 C 56 % 1012.5 hPa 0.0 l/m 1.8 km/h (1 Bft) O 0.00 h 0 W/m 7.5 C 16.4 C 3.2 km/h (1 Bft)
04.06.2009 00:00 14.9 C 66 % 1012.4 hPa 0.0 l/m 2.4 km/h (1 Bft) O-SO 0.00 h 0 W/m 8.6 C 14.9 C 3.9 km/h (1 Bft)
04.06.2009 01:00 14.4 C 64 % 1012.4 hPa 0.0 l/m 2.6 km/h (1 Bft) SO 0.00 h 0 W/m 7.6 C 14.4 C 5.7 km/h (1 Bft)
04.06.2009 02:00 14.6 C 57 % 1012.5 hPa 0.0 l/m 2.0 km/h (1 Bft) SO 0.00 h 0 W/m 6.1 C 14.6 C 4.8 km/h (1 Bft)
04.06.2009 03:00 13.7 C 66 % 1012.5 hPa 0.0 l/m 0.3 km/h (0 Bft) SO 0.00 h 0 W/m 7.4 C 13.7 C 1.3 km/h (1 Bft)
04.06.2009 04:00 12.0 C 75 % 1012.4 hPa 0.0 l/m 0.1 km/h (0 Bft) O-NO 0.00 h 0 W/m 7.7 C 12.0 C 0.8 km/h (0 Bft)
04.06.2009 05:00 11.7 C 72 % 1012.1 hPa 0.0 l/m 0.1 km/h (0 Bft) O-NO 0.00 h 8 W/m 6.8 C 11.7 C 0.7 km/h (0 Bft)
04.06.2009 06:00 11.6 C 75 % 1012.6 hPa 0.0 l/m 0.4 km/h (0 Bft) S-SW 0.00 h 41 W/m 7.4 C 11.6 C 1.1 km/h (1 Bft)
04.06.2009 07:00 12.5 C 75 % 1012.9 hPa 0.0 l/m 0.6 km/h (0 Bft) W-NW 0.33 h 155 W/m 8.1 C 12.5 C 1.3 km/h (1 Bft)
04.06.2009 08:00 16.2 C 63 % 1012.8 hPa 0.0 l/m 2.5 km/h (1 Bft) W-NW 1.00 h 353 W/m 9.1 C 16.2 C 4.7 km/h (1 Bft)
04.06.2009 09:00 16.8 C 58 % 1013.0 hPa 0.0 l/m 5.5 km/h (1 Bft) W-SW 1.00 h 520 W/m 8.4 C 16.8 C 9.5 km/h (2 Bft)
04.06.2009 10:00 17.3 C 51 % 1012.8 hPa 0.0 l/m 10.4 km/h (2 Bft) W 1.00 h 675 W/m 7.2 C 17.3 C 17.1 km/h (3 Bft)
04.06.2009 11:00 18.2 C 47 % 1012.8 hPa 0.0 l/m 10.1 km/h (2 Bft) W 1.00 h 789 W/m 6.6 C 18.2 C 17.1 km/h (3 Bft)
04.06.2009 12:00 18.8 C 40 % 1012.6 hPa 0.0 l/m 10.8 km/h (2 Bft) W 1.00 h 866 W/m 4.9 C 18.8 C 17.9 km/h (3 Bft)
04.06.2009 13:00 19.7 C 36 % 1012.3 hPa 0.0 l/m 11.9 km/h (2 Bft) W 1.00 h 898 W/m 4.3 C 19.7 C 19.4 km/h (3 Bft)
04.06.2009 14:00 20.3 C 34 % 1011.8 hPa 0.0 l/m 13.6 km/h (3 Bft) W 1.00 h 869 W/m 4.1 C 20.3 C 21.5 km/h (4 Bft)
04.06.2009 15:00 21.0 C 35 % 1011.6 hPa 0.0 l/m 14.3 km/h (3 Bft) W-NW 1.00 h 797 W/m 5.1 C 21.0 C 23.0 km/h (4 Bft)
04.06.2009 16:00 21.1 C 35 % 1011.3 hPa 0.0 l/m 14.1 km/h (3 Bft) W-NW 1.00 h 679 W/m 4.9 C 21.1 C 22.3 km/h (4 Bft)
04.06.2009 17:00 21.6 C 34 % 1010.9 hPa 0.0 l/m 10.2 km/h (2 Bft) W-NW 0.97 h 522 W/m 5.2 C 21.6 C 17.1 km/h (3 Bft)
04.06.2009 18:00 21.3 C 34 % 1010.4 hPa 0.0 l/m 11.1 km/h (2 Bft) W 1.00 h 384 W/m 4.6 C 21.3 C 17.8 km/h (3 Bft)
04.06.2009 19:00 20.4 C 37 % 1010.2 hPa 0.0 l/m 11.5 km/h (2 Bft) W 0.92 h 203 W/m 5.4 C 20.4 C 18.0 km/h (3 Bft)
04.06.2009 20:00 19.2 C 42 % 1010.4 hPa 0.0 l/m 8.3 km/h (2 Bft) W 0.85 h 78 W/m 6.0 C 19.2 C 13.5 km/h (3 Bft)
04.06.2009 21:00 17.3 C 49 % 1010.5 hPa 0.0 l/m 3.0 km/h (1 Bft) NW 0.05 h 9 W/m 6.3 C 17.3 C 4.8 km/h (1 Bft)
04.06.2009 22:00 14.6 C 59 % 1011.1 hPa 0.0 l/m 2.7 km/h (1 Bft) O-SO 0.00 h 0 W/m 6.8 C 14.6 C 4.1 km/h (1 Bft)
04.06.2009 23:00 13.1 C 66 % 1011.2 hPa 0.0 l/m 0.3 km/h (0 Bft) O-SO 0.00 h 0 W/m 7.0 C 13.1 C 0.9 km/h (0 Bft)
05.06.2009 00:00 11.7 C 73 % 1011.2 hPa 0.0 l/m 0.5 km/h (0 Bft) O-SO 0.00 h 0 W/m 6.9 C 11.7 C 1.6 km/h (1 Bft)
05.06.2009 01:00 10.1 C 79 % 1011.3 hPa 0.0 l/m 1.5 km/h (1 Bft) O-SO 0.00 h 0 W/m 6.5 C 10.1 C 2.8 km/h (1 Bft)
05.06.2009 02:00 9.1 C 82 % 1011.2 hPa 0.0 l/m 1.7 km/h (1 Bft) O-SO 0.00 h 0 W/m 6.3 C 9.1 C 2.6 km/h (1 Bft)
05.06.2009 03:00 8.2 C 85 % 1010.8 hPa 0.0 l/m 1.9 km/h (1 Bft) O-SO 0.00 h 0 W/m 5.8 C 8.1 C 3.3 km/h (1 Bft)
05.06.2009 04:00 7.5 C 87 % 1010.5 hPa 0.0 l/m 0.4 km/h (0 Bft) O-SO 0.00 h 0 W/m 5.5 C 7.5 C 1.3 km/h (1 Bft)
05.06.2009 05:00 7.1 C 89 % 1010.5 hPa 0.0 l/m 1.0 km/h (0 Bft) O-SO 0.27 h 15 W/m 5.4 C 7.1 C 1.8 km/h (1 Bft)
05.06.2009 06:00 7.1 C 91 % 1010.6 hPa 0.0 l/m 0.3 km/h (0 Bft) O-SO 0.32 h 74 W/m 5.7 C 7.1 C 0.7 km/h (0 Bft)
05.06.2009 07:00 9.8 C 87 % 1010.3 hPa 0.0 l/m 0.2 km/h (0 Bft) O-SO 0.95 h 219 W/m 7.7 C 9.8 C 1.0 km/h (0 Bft)
05.06.2009 08:00 13.4 C 70 % 1009.6 hPa 0.0 l/m 1.4 km/h (1 Bft) W-NW 0.93 h 369 W/m 8.0 C 13.4 C 3.4 km/h (1 Bft)
05.06.2009 09:00 14.5 C 63 % 1009.4 hPa 0.0 l/m 2.1 km/h (1 Bft) N-NW 1.00 h 441 W/m 7.5 C 14.5 C 4.2 km/h (1 Bft)
05.06.2009 10:00 16.5 C 54 % 1008.8 hPa 0.0 l/m 3.2 km/h (1 Bft) W 1.00 h 679 W/m 7.3 C 16.5 C 5.5 km/h (1 Bft)
05.06.2009 11:00 17.9 C 50 % 1008.2 hPa 0.0 l/m 1.7 km/h (1 Bft) O-SO 1.00 h 798 W/m 7.4 C 17.9 C 3.6 km/h (1 Bft)
05.06.2009 12:00 19.8 C 47 % 1007.4 hPa 0.0 l/m 2.2 km/h (1 Bft) W-NW 1.00 h 861 W/m 8.0 C 19.8 C 4.7 km/h (1 Bft)
05.06.2009 13:00 20.8 C 43 % 1006.8 hPa 0.0 l/m 3.2 km/h (1 Bft) W-NW 1.00 h 862 W/m 7.6 C 20.8 C 5.8 km/h (2 Bft)
05.06.2009 14:00 21.9 C 38 % 1005.9 hPa 0.0 l/m 5.6 km/h (1 Bft) W 1.00 h 840 W/m 7.1 C 21.9 C 9.6 km/h (2 Bft)
05.06.2009 15:00 22.9 C 39 % 1005.0 hPa 0.0 l/m 4.4 km/h (1 Bft) W 1.00 h 705 W/m 8.3 C 22.9 C 7.3 km/h (2 Bft)
05.06.2009 16:00 22.6 C 44 % 1004.5 hPa 0.0 l/m 4.2 km/h (1 Bft) W 0.95 h 464 W/m 9.7 C 22.6 C 6.8 km/h (2 Bft)
05.06.2009 17:00 21.5 C 47 % 1004.2 hPa 0.0 l/m 4.5 km/h (1 Bft) W-NW 0.08 h 262 W/m 9.7 C 21.5 C 7.3 km/h (2 Bft)
05.06.2009 18:00 20.8 C 49 % 1003.5 hPa 0.0 l/m 4.4 km/h (1 Bft) W-NW 0.43 h 235 W/m 9.6 C 20.8 C 7.3 km/h (2 Bft)
05.06.2009 19:00 20.3 C 50 % 1003.1 hPa 0.0 l/m 2.6 km/h (1 Bft) W-NW 0.00 h 64 W/m 9.5 C 20.3 C 4.7 km/h (1 Bft)
05.06.2009 20:00 19.3 C 53 % 1002.7 hPa 0.0 l/m 1.6 km/h (1 Bft) N-NW 0.00 h 30 W/m 9.4 C 19.3 C 3.3 km/h (1 Bft)
05.06.2009 21:00 18.3 C 56 % 1002.4 hPa 0.0 l/m 2.6 km/h (1 Bft) N-NW 0.00 h 5 W/m 9.5 C 18.3 C 4.6 km/h (1 Bft)
05.06.2009 22:00 17.6 C 59 % 1002.1 hPa 0.0 l/m 0.1 km/h (0 Bft) N 0.00 h 0 W/m 9.5 C 17.6 C 0.5 km/h (0 Bft)
05.06.2009 23:00 16.9 C 60 % 1001.6 hPa 0.0 l/m 2.2 km/h (1 Bft) N 0.00 h 0 W/m 9.0 C 16.9 C 5.0 km/h (1 Bft)
06.06.2009 00:00 16.3 C 65 % 1001.2 hPa 1.4 l/m 2.2 km/h (1 Bft) N 0.00 h 0 W/m 9.6 C 16.3 C 5.0 km/h (1 Bft)
06.06.2009 01:00 14.1 C 79 % 999.8 hPa 0.0 l/m 1.0 km/h (0 Bft) N 0.00 h 0 W/m 10.5 C 14.1 C 3.0 km/h (1 Bft)
06.06.2009 02:00 13.0 C 84 % 998.8 hPa 0.0 l/m 0.7 km/h (0 Bft) SO 0.00 h 0 W/m 10.3 C 13.0 C 2.0 km/h (1 Bft)
06.06.2009 03:00 12.5 C 88 % 998.8 hPa 0.0 l/m 5.3 km/h (1 Bft) N 0.00 h 0 W/m 10.5 C 12.5 C 8.5 km/h (2 Bft)
06.06.2009 04:00 12.0 C 90 % 997.9 hPa 0.0 l/m 1.3 km/h (1 Bft) O-SO 0.00 h 0 W/m 10.4 C 12.0 C 2.4 km/h (1 Bft)
06.06.2009 05:00 11.9 C 91 % 998.1 hPa 0.0 l/m 0.3 km/h (0 Bft) SO 0.00 h 7 W/m 10.5 C 11.9 C 1.1 km/h (0 Bft)
06.06.2009 06:00 12.2 C 93 % 998.3 hPa 0.6 l/m 0.3 km/h (0 Bft) SO 0.00 h 11 W/m 11.1 C 12.2 C 1.2 km/h (1 Bft)
06.06.2009 07:00 12.3 C 94 % 998.3 hPa 0.6 l/m 0.0 km/h (0 Bft) SO 0.00 h 28 W/m 11.3 C 12.3 C 0.2 km/h (0 Bft)
06.06.2009 08:00 12.5 C 95 % 997.9 hPa 0.4 l/m 0.2 km/h (0 Bft) SO 0.00 h 37 W/m 11.7 C 12.5 C 1.1 km/h (0 Bft)
06.06.2009 09:00 12.5 C 95 % 997.7 hPa 1.4 l/m 2.1 km/h (1 Bft) O-SO 0.00 h 81 W/m 11.8 C 12.5 C 3.6 km/h (1 Bft)
06.06.2009 10:00 13.4 C 97 % 998.5 hPa 0.0 l/m 0.4 km/h (0 Bft) O-SO 0.03 h 128 W/m 12.8 C 13.4 C 1.3 km/h (1 Bft)
06.06.2009 11:00 15.6 C 94 % 998.4 hPa 0.0 l/m 0.7 km/h (0 Bft) W 0.13 h 298 W/m 14.7 C 15.6 C 2.4 km/h (1 Bft)
06.06.2009 12:00 15.7 C 91 % 998.5 hPa 0.2 l/m 5.2 km/h (1 Bft) W-NW 0.00 h 172 W/m 14.1 C 15.7 C 8.7 km/h (2 Bft)
06.06.2009 13:00 15.0 C 92 % 998.7 hPa 0.0 l/m 4.1 km/h (1 Bft) W 0.00 h 230 W/m 13.6 C 15.0 C 7.2 km/h (2 Bft)
06.06.2009 14:00 16.7 C 83 % 998.4 hPa 0.0 l/m 1.7 km/h (1 Bft) W-SW 0.52 h 535 W/m 13.8 C 16.7 C 3.7 km/h (1 Bft)
06.06.2009 15:00 17.9 C 74 % 997.9 hPa 1.0 l/m 8.0 km/h (2 Bft) SO 0.13 h 283 W/m 13.1 C 17.9 C 12.9 km/h (3 Bft)
06.06.2009 16:00 15.1 C 87 % 998.4 hPa 0.6 l/m 16.1 km/h (3 Bft) W 0.50 h 480 W/m 13.0 C 15.1 C 24.1 km/h (4 Bft)
06.06.2009 17:00 15.7 C 85 % 998.4 hPa 0.0 l/m 11.6 km/h (2 Bft) W 0.40 h 368 W/m 13.1 C 15.7 C 19.4 km/h (3 Bft)
06.06.2009 18:00 17.1 C 76 % 999.2 hPa 0.0 l/m 6.4 km/h (2 Bft) W-NW 0.43 h 237 W/m 12.8 C 17.1 C 10.2 km/h (2 Bft)
06.06.2009 19:00 17.0 C 74 % 999.5 hPa 0.4 l/m 3.6 km/h (1 Bft) SO 0.00 h 79 W/m 12.3 C 17.0 C 6.3 km/h (2 Bft)
06.06.2009 20:00 14.8 C 85 % 1000.0 hPa 0.0 l/m 3.3 km/h (1 Bft) O-SO 0.00 h 30 W/m 12.3 C 14.8 C 5.4 km/h (1 Bft)
06.06.2009 21:00 13.8 C 88 % 1000.5 hPa 0.4 l/m 5.1 km/h (1 Bft) S-SO 0.07 h 10 W/m 11.8 C 13.8 C 9.9 km/h (2 Bft)
06.06.2009 22:00 13.3 C 90 % 1001.4 hPa 0.4 l/m 3.8 km/h (1 Bft) S-SO 0.00 h 0 W/m 11.7 C 13.3 C 7.0 km/h (2 Bft)
06.06.2009 23:00 13.1 C 91 % 1001.6 hPa 0.2 l/m 0.7 km/h (0 Bft) S-SO 0.00 h 0 W/m 11.7 C 13.1 C 2.0 km/h (1 Bft)
07.06.2009 00:00 12.8 C 93 % 1001.7 hPa 0.2 l/m 0.9 km/h (0 Bft) O-SO 0.00 h 0 W/m 11.6 C 12.8 C 2.7 km/h (1 Bft)
07.06.2009 01:00 12.5 C 94 % 1001.9 hPa 0.0 l/m 1.6 km/h (1 Bft) S 0.00 h 0 W/m 11.5 C 12.5 C 4.3 km/h (1 Bft)
07.06.2009 02:00 12.2 C 94 % 1002.3 hPa 0.0 l/m 2.0 km/h (1 Bft) O-SO 0.00 h 0 W/m 11.2 C 12.2 C 3.6 km/h (1 Bft)
07.06.2009 03:00 11.8 C 94 % 1002.8 hPa 0.0 l/m 1.1 km/h (1 Bft) S-SO 0.00 h 0 W/m 10.9 C 11.8 C 2.9 km/h (1 Bft)
07.06.2009 04:00 11.8 C 93 % 1003.1 hPa 0.0 l/m 1.4 km/h (1 Bft) S-SO 0.00 h 0 W/m 10.8 C 11.8 C 3.5 km/h (1 Bft)
07.06.2009 05:00 11.7 C 92 % 1003.4 hPa 0.0 l/m 0.9 km/h (0 Bft) SW 0.00 h 10 W/m 10.4 C 11.7 C 2.9 km/h (1 Bft)
07.06.2009 06:00 11.6 C 92 % 1003.7 hPa 0.0 l/m 1.4 km/h (1 Bft) S-SO 0.00 h 39 W/m 10.4 C 11.6 C 3.6 km/h (1 Bft)
07.06.2009 07:00 12.7 C 91 % 1004.2 hPa 0.0 l/m 1.8 km/h (1 Bft) S-SO 0.28 h 143 W/m 11.3 C 12.7 C 4.9 km/h (1 Bft)
07.06.2009 08:00 15.9 C 80 % 1004.3 hPa 0.0 l/m 3.3 km/h (1 Bft) S-SO 1.00 h 382 W/m 12.3 C 15.9 C 7.3 km/h (2 Bft)
07.06.2009 09:00 17.3 C 73 % 1004.4 hPa 0.0 l/m 4.8 km/h (1 Bft) S-SO 1.00 h 557 W/m 12.4 C 17.3 C 9.6 km/h (2 Bft)
07.06.2009 10:00 19.6 C 62 % 1004.1 hPa 0.0 l/m 7.3 km/h (2 Bft) W 1.00 h 738 W/m 12.1 C 19.6 C 13.7 km/h (3 Bft)
07.06.2009 11:00 20.5 C 55 % 1004.0 hPa 0.0 l/m 8.4 km/h (2 Bft) SW 0.62 h 673 W/m 11.1 C 20.5 C 15.6 km/h (3 Bft)
07.06.2009 12:00 20.1 C 47 % 1004.6 hPa 0.0 l/m 19.9 km/h (4 Bft) W 0.77 h 796 W/m 8.4 C 20.1 C 31.8 km/h (5 Bft)
07.06.2009 13:00 20.0 C 54 % 1005.0 hPa 0.0 l/m 18.7 km/h (3 Bft) W 0.72 h 759 W/m 10.4 C 20.0 C 28.3 km/h (4 Bft)
07.06.2009 14:00 17.9 C 60 % 1005.8 hPa 0.0 l/m 17.4 km/h (3 Bft) W 0.20 h 445 W/m 10.0 C 17.9 C 27.0 km/h (4 Bft)
07.06.2009 15:00 18.6 C 58 % 1005.5 hPa 0.0 l/m 11.9 km/h (2 Bft) W 0.43 h 508 W/m 10.2 C 18.6 C 18.7 km/h (3 Bft)
07.06.2009 16:00 20.9 C 51 % 1004.9 hPa 0.0 l/m 15.8 km/h (3 Bft) W 0.70 h 637 W/m 10.4 C 20.9 C 24.7 km/h (4 Bft)
07.06.2009 17:00 18.7 C 57 % 1006.1 hPa 0.0 l/m 18.7 km/h (3 Bft) W-NW 0.97 h 567 W/m 10.1 C 18.7 C 28.0 km/h (4 Bft)
07.06.2009 18:00 17.9 C 62 % 1006.5 hPa 0.0 l/m 17.3 km/h (3 Bft) W 0.62 h 314 W/m 10.5 C 17.9 C 25.3 km/h (4 Bft)
07.06.2009 19:00 17.6 C 63 % 1006.9 hPa 0.0 l/m 12.8 km/h (3 Bft) W 0.20 h 127 W/m 10.6 C 17.6 C 19.8 km/h (4 Bft)
07.06.2009 20:00 16.4 C 66 % 1007.6 hPa 0.0 l/m 10.0 km/h (2 Bft) W-NW 0.13 h 45 W/m 10.1 C 16.4 C 15.8 km/h (3 Bft)
07.06.2009 21:00 15.1 C 69 % 1008.3 hPa 0.0 l/m 8.8 km/h (2 Bft) W 0.13 h 11 W/m 9.4 C 15.1 C 13.9 km/h (3 Bft)
07.06.2009 22:00 14.2 C 72 % 1008.9 hPa 0.0 l/m 1.9 km/h (1 Bft) W 0.00 h 0 W/m 9.3 C 14.2 C 4.1 km/h (1 Bft)
07.06.2009 23:00 13.6 C 78 % 1009.3 hPa 0.0 l/m 3.3 km/h (1 Bft) SO 0.00 h 0 W/m 9.9 C 13.6 C 4.7 km/h (1 Bft)
Min-Datum _ 05.06.09 03.06.09 06.06.09 - 01.06.09 - - - 04.06.09 05.06.09 01.06.09
_ Min-Zeit 06:00 13:54 09:30 - 00:04 - - - 12:39 05:47 01:02
Minimum _ 6.7 C 28 % 997.4 hPa - 0.0 km/h (0 Bft) - - - 1.3 C 6.8 C 0.0 km/h (0 Bft)
Max-Datum _ 02.06.09 06.06.09 01.06.09 06.06.09 07.06.09 - 01.06.09 01.06.09 06.06.09 02.06.09 07.06.09
_ Max-Zeit 16:12 09:12 00:00 00:38 16:52 - 05:46 13:05 11:24 16:11 16:50
Maximum _ 25.0 C 99 % 1018.5 hPa 1.4 l/m 34.8 km/h
W (5 Bft)
- 0.02 h 1155 W/m 15.5 C 25.0 C 48.7 km/h
W-NW (6 Bft)
Durchschnitt _ 16.3 C 67 % 1009.8 hPa #7.8 l/m 4.3 km/h (1 Bft) W #63:55 h 373 W/m 9.5 C 16.3 C 7.5 km/h (2 Bft)
© Kaiko 2009